createdAt,value
2017-10-10T00:00:47.411Z,9.15
2017-10-10T00:03:15.278Z,8.80
2017-10-10T00:05:43.145Z,9.38
2017-10-10T00:08:11.013Z,9.63
2017-10-10T00:10:38.880Z,9.38
2017-10-10T00:13:06.747Z,10.25
2017-10-10T00:15:34.614Z,9.75
2017-10-10T00:18:02.482Z,8.80
2017-10-10T00:20:30.349Z,8.55
2017-10-10T00:22:58.219Z,7.82
2017-10-10T00:25:26.084Z,8.82
2017-10-10T00:27:53.951Z,8.05
2017-10-10T00:30:21.824Z,9.52
2017-10-10T00:32:49.689Z,9.00
2017-10-10T00:35:17.553Z,9.30
2017-10-10T00:37:45.424Z,8.88
2017-10-10T00:40:13.292Z,9.23
2017-10-10T00:42:41.159Z,8.10
2017-10-10T00:45:09.023Z,9.27
2017-10-10T00:47:36.891Z,8.27
2017-10-10T00:50:04.757Z,8.38
2017-10-10T00:52:32.625Z,8.50
2017-10-10T00:55:00.526Z,8.27
2017-10-10T00:57:29.179Z,8.32
2017-10-10T00:59:57.045Z,7.80
2017-10-10T01:02:24.913Z,8.27
2017-10-10T01:04:52.779Z,8.82
2017-10-10T01:07:20.647Z,7.55
2017-10-10T01:09:48.514Z,7.97
2017-10-10T01:12:16.382Z,6.95
2017-10-10T01:14:44.248Z,8.40
2017-10-10T01:17:12.116Z,7.30
2017-10-10T01:19:39.984Z,8.02
2017-10-10T01:22:08.772Z,6.95
2017-10-10T01:24:36.640Z,8.00
2017-10-10T01:27:04.507Z,6.93
2017-10-10T01:29:32.375Z,7.00
2017-10-10T01:32:00.242Z,7.20
2017-10-10T01:34:28.109Z,7.85
2017-10-10T01:36:55.977Z,8.27
2017-10-10T01:39:23.845Z,6.80
2017-10-10T01:41:51.711Z,7.70
2017-10-10T01:44:19.681Z,6.90
2017-10-10T01:46:47.551Z,7.50
2017-10-10T01:49:15.415Z,7.35
2017-10-10T01:51:43.284Z,7.70
2017-10-10T01:54:11.150Z,7.60
2017-10-10T01:56:39.017Z,7.97
2017-10-10T01:59:06.886Z,8.00
2017-10-10T02:01:34.752Z,8.05
2017-10-10T02:04:02.619Z,8.85
2017-10-10T02:06:30.419Z,9.07
2017-10-10T02:08:59.071Z,9.07
2017-10-10T02:11:26.938Z,9.90
2017-10-10T02:13:54.806Z,10.05
2017-10-10T02:16:22.673Z,9.07
2017-10-10T02:18:50.540Z,11.05
2017-10-10T02:21:18.407Z,10.80
2017-10-10T02:23:46.275Z,10.45
2017-10-10T02:26:14.142Z,10.43
2017-10-10T02:28:42.010Z,11.95
2017-10-10T02:31:09.810Z,11.02
2017-10-10T02:33:38.460Z,11.43
2017-10-10T02:36:06.328Z,11.60
2017-10-10T02:38:34.194Z,11.45
2017-10-10T02:41:02.063Z,11.63
2017-10-10T02:43:29.932Z,10.55
2017-10-10T02:45:57.696Z,11.43
2017-10-10T02:48:25.566Z,12.57
2017-10-10T02:50:53.429Z,11.88
2017-10-10T02:53:21.297Z,11.93
2017-10-10T02:55:49.164Z,11.05
2017-10-10T02:58:17.032Z,12.80
2017-10-10T03:00:44.904Z,12.37
2017-10-10T03:03:12.766Z,12.25
2017-10-10T03:05:40.634Z,12.35
2017-10-10T03:08:08.501Z,11.82
2017-10-10T03:10:36.367Z,11.93
2017-10-10T03:13:04.235Z,13.05
2017-10-10T03:15:32.103Z,13.43
2017-10-10T03:17:59.970Z,13.32
2017-10-10T03:20:27.837Z,13.23
2017-10-10T03:22:55.704Z,13.82
2017-10-10T03:25:23.572Z,13.80
2017-10-10T03:27:51.439Z,13.30
2017-10-10T03:30:19.310Z,12.90
2017-10-10T03:32:47.173Z,14.10
2017-10-10T03:35:15.048Z,11.60
2017-10-10T03:37:43.013Z,12.55
2017-10-10T03:40:10.879Z,12.45
2017-10-10T03:42:38.750Z,13.30
2017-10-10T03:45:06.617Z,12.55
2017-10-10T03:47:34.484Z,13.02
2017-10-10T03:50:02.348Z,12.55
2017-10-10T03:52:30.317Z,12.13
2017-10-10T03:54:58.183Z,13.35
2017-10-10T03:57:26.055Z,11.50
2017-10-10T03:59:54.226Z,14.18
2017-10-10T04:02:22.093Z,12.63
2017-10-10T04:04:49.960Z,13.25
2017-10-10T04:07:17.828Z,13.18
2017-10-10T04:09:45.694Z,13.65
2017-10-10T04:12:13.562Z,13.10
2017-10-10T04:14:41.429Z,12.65
2017-10-10T04:17:09.297Z,13.88
2017-10-10T04:19:37.165Z,13.82
2017-10-10T04:22:05.032Z,12.85
2017-10-10T04:24:32.899Z,13.65
2017-10-10T04:27:00.766Z,13.50
2017-10-10T04:29:28.634Z,13.70
2017-10-10T04:31:56.501Z,13.05
2017-10-10T05:50:27.161Z,14.00
2017-10-10T05:52:55.028Z,15.32
2017-10-10T05:55:22.898Z,14.73
2017-10-10T05:57:50.763Z,14.82
2017-10-10T06:00:18.629Z,14.25
2017-10-10T06:02:46.496Z,15.45
2017-10-10T06:05:14.369Z,13.27
2017-10-10T06:07:42.436Z,13.70
2017-10-10T06:10:10.304Z,13.88
2017-10-10T06:12:38.170Z,15.13
2017-10-10T06:15:06.039Z,14.40
2017-10-10T06:17:33.909Z,15.05
2017-10-10T06:20:01.773Z,14.20
2017-10-10T06:22:29.641Z,14.90
2017-10-10T06:24:57.507Z,14.82
2017-10-10T06:27:25.376Z,14.50
2017-10-10T06:29:53.242Z,14.65
2017-10-10T06:32:21.111Z,15.05
2017-10-10T06:34:48.991Z,16.50
2017-10-10T06:37:16.849Z,14.68
2017-10-10T06:39:44.719Z,15.93
2017-10-10T06:42:12.581Z,15.18
2017-10-10T06:44:40.446Z,15.57
2017-10-10T06:47:08.518Z,15.60
2017-10-10T06:49:36.386Z,15.18
2017-10-10T06:52:04.253Z,15.48
2017-10-10T06:54:32.120Z,16.17
2017-10-10T06:56:59.987Z,16.40
2017-10-10T06:59:27.855Z,15.90
2017-10-10T07:01:55.721Z,14.93
2017-10-10T07:04:23.589Z,15.10
2017-10-10T07:06:51.457Z,15.25
2017-10-10T07:09:19.324Z,15.27
2017-10-10T07:11:47.192Z,15.18
2017-10-10T07:14:15.059Z,15.88
2017-10-10T07:16:42.926Z,15.52
2017-10-10T07:19:10.794Z,16.12
2017-10-10T07:21:38.661Z,14.30
2017-10-10T07:24:06.528Z,16.37
2017-10-10T07:26:34.498Z,16.25
2017-10-10T07:29:02.366Z,16.05
2017-10-10T07:31:30.232Z,16.77
2017-10-10T07:33:58.101Z,16.92
2017-10-10T07:36:25.973Z,16.52
2017-10-10T07:38:53.835Z,16.87
2017-10-10T07:41:21.702Z,15.95
2017-10-10T07:43:49.569Z,17.48
2017-10-10T07:46:17.436Z,15.63
2017-10-10T07:48:45.303Z,16.20
2017-10-10T07:51:13.171Z,17.00
2017-10-10T07:53:41.140Z,15.13
2017-10-10T07:56:09.008Z,18.02
2017-10-10T07:58:36.875Z,17.33
2017-10-10T08:01:04.748Z,17.17
2017-10-10T08:03:32.615Z,16.15
2017-10-10T08:06:00.488Z,16.45
2017-10-10T08:08:28.349Z,17.08
2017-10-10T08:10:56.215Z,16.10
2017-10-10T08:13:24.084Z,15.23
2017-10-10T08:15:52.053Z,15.05
2017-10-10T08:18:19.918Z,15.23
2017-10-10T08:20:47.800Z,16.35
2017-10-10T08:23:15.651Z,17.67
2017-10-10T08:25:43.518Z,16.83
2017-10-10T08:28:11.385Z,16.00
2017-10-10T08:30:39.253Z,16.62
2017-10-10T08:33:07.222Z,17.15
2017-10-10T08:35:35.090Z,16.15
2017-10-10T08:38:02.956Z,15.90
2017-10-10T08:40:30.823Z,14.73
2017-10-10T08:42:58.692Z,14.43
2017-10-10T08:45:26.561Z,15.10
2017-10-10T08:47:54.429Z,15.40
2017-10-10T08:50:22.158Z,15.82
2017-10-10T08:52:49.875Z,15.45
2017-10-10T08:55:17.595Z,16.48
2017-10-10T08:57:45.384Z,16.83
2017-10-10T09:00:13.114Z,16.15
2017-10-10T09:02:40.823Z,16.02
2017-10-10T09:05:08.678Z,15.52
2017-10-10T09:07:36.442Z,13.48
2017-10-10T09:10:04.310Z,15.50
2017-10-10T09:12:32.280Z,14.50
2017-10-10T09:15:00.147Z,13.62
2017-10-10T09:17:27.866Z,13.85
2017-10-10T09:19:55.780Z,15.77
2017-10-10T09:22:23.647Z,14.82
2017-10-10T09:24:51.372Z,15.38
2017-10-10T09:27:19.091Z,14.40
2017-10-10T09:29:46.942Z,14.25
2017-10-10T09:32:14.662Z,14.65
2017-10-10T09:34:42.374Z,14.25
2017-10-10T09:37:10.090Z,12.75
2017-10-10T09:39:37.890Z,14.63
2017-10-10T09:42:05.618Z,14.73
2017-10-10T09:44:33.330Z,15.30
2017-10-10T09:47:01.043Z,13.90
2017-10-10T09:49:28.752Z,15.25
2017-10-10T09:51:56.625Z,15.30
2017-10-10T09:54:24.489Z,15.18
2017-10-10T09:56:52.356Z,13.62
2017-10-10T09:59:20.075Z,15.60
2017-10-10T10:01:47.886Z,14.07
2017-10-10T10:04:15.615Z,14.45
2017-10-10T10:06:43.416Z,15.20
2017-10-10T10:09:11.177Z,14.90
2017-10-10T10:11:38.935Z,14.35
2017-10-10T10:14:06.654Z,13.95
2017-10-10T10:16:35.141Z,12.85
2017-10-10T10:19:02.879Z,14.80
2017-10-10T10:21:30.645Z,14.73
2017-10-10T10:23:58.486Z,13.15
2017-10-10T10:26:26.206Z,11.88
2017-10-10T10:28:53.934Z,12.20
2017-10-10T10:31:21.658Z,10.52
2017-10-10T10:33:49.378Z,10.80
2017-10-10T10:36:18.028Z,11.07
2017-10-10T10:38:45.896Z,12.82
2017-10-10T10:41:13.763Z,12.00
2017-10-10T10:43:42.347Z,11.85
2017-10-10T10:46:10.072Z,11.18
2017-10-10T10:48:37.793Z,12.15
2017-10-10T10:51:05.553Z,12.75
2017-10-10T10:53:33.275Z,13.07
2017-10-10T10:56:01.171Z,11.95
2017-10-10T10:58:28.891Z,13.10
2017-10-10T11:00:56.612Z,13.15
2017-10-10T11:03:24.466Z,12.23
2017-10-10T11:05:52.265Z,12.82
2017-10-10T11:08:20.780Z,12.07
2017-10-10T11:10:48.511Z,13.50
2017-10-10T11:13:17.002Z,13.27
2017-10-10T11:15:45.537Z,12.77
2017-10-10T11:18:13.258Z,12.27
2017-10-10T11:20:41.780Z,13.45
2017-10-10T11:23:09.506Z,12.82
2017-10-10T11:25:37.228Z,11.50
2017-10-10T11:28:04.951Z,12.30
2017-10-10T11:30:32.686Z,10.93
2017-10-10T11:33:01.245Z,10.05
2017-10-10T11:35:29.096Z,10.88
2017-10-10T11:37:56.814Z,10.10
2017-10-10T11:40:24.626Z,11.10
2017-10-10T11:42:52.492Z,10.95
2017-10-10T11:45:20.360Z,11.95
2017-10-10T11:47:48.228Z,9.48
2017-10-10T11:50:16.096Z,9.40
2017-10-10T11:52:43.962Z,8.73
2017-10-10T11:55:11.728Z,8.45
2017-10-10T11:57:39.595Z,9.68
2017-10-10T12:00:07.325Z,8.60
2017-10-10T12:02:35.038Z,7.50
2017-10-10T12:05:02.772Z,9.30
2017-10-10T12:07:30.654Z,7.25
2017-10-10T12:09:58.522Z,7.55
2017-10-10T12:12:26.389Z,6.43
2017-10-10T12:14:54.152Z,8.05
2017-10-10T12:17:22.646Z,8.05
2017-10-10T12:19:50.503Z,10.10
2017-10-10T12:22:18.371Z,10.63
2017-10-10T12:24:46.238Z,10.40
2017-10-10T12:27:14.110Z,9.25
2017-10-10T12:29:41.826Z,8.10
2017-10-10T12:32:09.546Z,6.68
2017-10-10T12:34:39.069Z,6.25
2017-10-10T12:37:07.624Z,6.22
2017-10-10T12:39:37.763Z,6.90
2017-10-10T12:42:07.178Z,5.57
2017-10-10T12:44:37.585Z,6.70
2017-10-10T12:47:06.587Z,5.80
2017-10-10T12:49:35.706Z,6.45
2017-10-10T12:52:03.529Z,6.10
2017-10-10T12:54:31.397Z,5.60
2017-10-10T12:56:59.265Z,4.40
2017-10-10T12:59:27.512Z,5.10
2017-10-10T13:01:55.307Z,5.00
2017-10-10T13:04:23.175Z,5.53
2017-10-10T13:06:51.041Z,5.70
2017-10-10T13:09:18.909Z,7.00
2017-10-10T13:11:46.775Z,10.10
2017-10-10T13:14:16.074Z,10.10
2017-10-10T13:16:44.309Z,7.10
2017-10-10T13:19:12.052Z,7.43
2017-10-10T13:21:40.530Z,8.00
2017-10-10T13:24:09.011Z,7.05
2017-10-10T13:26:37.564Z,7.60
2017-10-10T13:29:05.431Z,8.32
2017-10-10T13:31:33.170Z,8.38
2017-10-10T13:34:00.951Z,7.45
2017-10-10T13:36:28.829Z,7.75
2017-10-10T13:38:56.696Z,8.10
2017-10-10T13:41:24.427Z,8.35
2017-10-10T13:43:52.154Z,8.18
2017-10-10T13:46:19.955Z,8.48
2017-10-10T13:48:47.858Z,8.00
2017-10-10T13:51:15.725Z,9.10
2017-10-10T13:53:43.593Z,8.70
2017-10-10T13:56:11.459Z,9.60
2017-10-10T13:58:39.182Z,7.90
2017-10-10T14:01:06.910Z,8.95
2017-10-10T14:03:34.755Z,8.63
2017-10-10T14:06:02.625Z,8.68
2017-10-10T14:08:30.341Z,8.70
2017-10-10T14:10:58.066Z,8.15
2017-10-10T14:13:25.792Z,8.32
2017-10-10T14:15:55.115Z,8.80
2017-10-10T14:18:22.982Z,8.82
2017-10-10T14:20:50.850Z,9.65
2017-10-10T14:23:18.716Z,8.30
2017-10-10T14:25:46.589Z,8.57
2017-10-10T14:28:14.312Z,8.80
2017-10-10T14:30:42.026Z,8.38
2017-10-10T14:33:09.766Z,8.95
2017-10-10T14:35:37.650Z,9.32
2017-10-10T14:38:05.515Z,9.30
2017-10-10T14:40:33.384Z,8.93
2017-10-10T14:43:01.249Z,8.27
2017-10-10T14:45:29.114Z,9.02
2017-10-10T14:47:56.981Z,9.23
2017-10-10T14:50:24.702Z,8.65
2017-10-10T14:52:52.427Z,9.07
2017-10-10T14:55:20.151Z,8.48
2017-10-10T14:57:47.871Z,9.30
2017-10-10T15:00:16.355Z,8.05
2017-10-10T15:02:45.003Z,7.90
2017-10-10T15:05:12.870Z,9.10
2017-10-10T15:07:41.045Z,8.30
2017-10-10T15:10:08.911Z,8.02
2017-10-10T15:12:36.683Z,9.25
2017-10-10T15:15:08.657Z,8.75
2017-10-10T15:17:36.611Z,8.50
2017-10-10T15:20:04.478Z,7.55
2017-10-10T15:22:32.351Z,8.43
2017-10-10T15:25:00.070Z,8.70
2017-10-10T15:27:27.874Z,8.60
2017-10-10T15:29:55.743Z,6.95
2017-10-10T15:32:23.610Z,8.20
2017-10-10T15:34:52.194Z,8.05
2017-10-10T15:37:20.062Z,7.40
2017-10-10T15:39:47.785Z,8.48
2017-10-10T15:42:15.697Z,8.43
2017-10-10T15:44:43.563Z,7.87
2017-10-10T15:47:11.428Z,8.00
2017-10-10T15:49:39.146Z,7.82
2017-10-10T15:52:06.958Z,7.57
2017-10-10T15:54:34.824Z,7.90
2017-10-10T15:57:02.553Z,8.23
2017-10-10T15:59:30.354Z,8.40
2017-10-10T16:01:58.230Z,7.68
2017-10-10T16:04:26.089Z,8.25
2017-10-10T16:06:53.957Z,8.68
2017-10-10T16:09:21.677Z,8.52
2017-10-10T16:11:49.386Z,8.57
2017-10-10T16:14:17.251Z,7.55
2017-10-10T16:16:45.118Z,9.40
2017-10-10T16:19:12.986Z,8.07
2017-10-10T16:21:40.854Z,7.82
2017-10-10T16:24:08.721Z,7.87
2017-10-10T16:26:36.518Z,7.85
2017-10-10T16:29:05.172Z,7.70
2017-10-10T16:31:33.039Z,8.25
2017-10-10T16:34:00.907Z,9.00
2017-10-10T16:36:28.775Z,8.75
2017-10-10T16:38:56.645Z,8.25
2017-10-10T16:41:24.358Z,8.10
2017-10-10T16:43:53.812Z,7.65
2017-10-10T16:46:23.560Z,8.52
2017-10-10T16:48:54.402Z,7.72
2017-10-10T16:51:25.077Z,8.25
2017-10-10T16:53:55.078Z,8.55
2017-10-10T16:56:25.250Z,8.40
2017-10-10T16:58:54.985Z,8.60
2017-10-10T17:01:23.632Z,9.57
2017-10-10T17:03:51.494Z,9.15
2017-10-10T17:06:19.218Z,9.45
2017-10-10T17:08:47.024Z,8.30
2017-10-10T17:11:14.891Z,8.50
2017-10-10T17:13:42.758Z,8.68
2017-10-10T17:16:10.523Z,9.60
2017-10-10T17:18:38.319Z,8.88
2017-10-10T17:21:06.874Z,8.55
2017-10-10T17:23:34.741Z,8.45
2017-10-10T17:26:02.709Z,7.82
2017-10-10T17:28:31.331Z,8.80
2017-10-10T17:31:00.390Z,8.30
2017-10-10T17:33:28.369Z,7.40
2017-10-10T17:35:56.226Z,7.85
2017-10-10T17:38:28.971Z,8.32
2017-10-10T17:41:02.401Z,6.60
2017-10-10T17:43:33.529Z,7.37
2017-10-10T17:46:06.326Z,7.45
2017-10-10T17:48:34.242Z,6.40
2017-10-10T17:51:02.891Z,7.95
2017-10-10T17:53:30.758Z,7.00
2017-10-10T17:55:58.624Z,6.90
2017-10-10T17:58:26.492Z,7.87
2017-10-10T18:00:54.460Z,8.32
2017-10-10T18:03:22.326Z,7.80
2017-10-10T18:05:50.195Z,7.32
2017-10-10T18:08:18.087Z,7.65
2017-10-10T18:10:46.747Z,7.93
2017-10-10T18:13:14.618Z,7.75
2017-10-10T18:15:43.199Z,8.55
2017-10-10T18:18:11.066Z,8.00
2017-10-10T18:20:38.933Z,7.95
2017-10-10T18:23:06.800Z,8.25
2017-10-10T18:25:34.669Z,7.80
2017-10-10T18:28:02.536Z,7.78
2017-10-10T18:30:30.402Z,7.10
2017-10-10T18:32:58.269Z,7.15
2017-10-10T18:35:26.137Z,7.53
2017-10-10T18:37:54.006Z,7.55
2017-10-10T18:40:21.976Z,7.82
2017-10-10T18:42:49.841Z,7.90
2017-10-10T18:45:17.708Z,7.85
2017-10-10T18:47:45.575Z,8.00
2017-10-10T18:50:13.443Z,7.22
2017-10-10T18:52:41.316Z,8.55
2017-10-10T18:55:09.177Z,8.65
2017-10-10T18:57:37.045Z,8.70
2017-10-10T19:00:04.913Z,7.78
2017-10-10T19:02:32.780Z,8.40
2017-10-10T19:05:00.648Z,9.13
2017-10-10T19:07:28.514Z,8.00
2017-10-10T19:09:56.382Z,8.32
2017-10-10T19:12:24.248Z,9.95
2017-10-10T19:14:52.117Z,7.62
2017-10-10T19:17:19.984Z,8.38
2017-10-10T19:19:47.852Z,8.25
2017-10-10T19:22:15.718Z,8.60
2017-10-10T19:24:43.586Z,9.00
2017-10-10T19:27:11.454Z,9.68
2017-10-10T19:29:39.321Z,9.27
2017-10-10T19:32:07.114Z,9.32
2017-10-10T19:34:35.773Z,9.20
2017-10-10T19:37:03.638Z,9.70
2017-10-10T19:39:31.507Z,9.70
2017-10-10T19:41:59.373Z,8.55
2017-10-10T19:44:27.241Z,9.35
2017-10-10T19:46:55.109Z,8.75
2017-10-10T19:49:22.975Z,10.10
2017-10-10T19:51:50.843Z,9.85
2017-10-10T19:54:18.710Z,10.45
2017-10-10T19:56:46.578Z,10.10
2017-10-10T19:59:14.449Z,10.07
2017-10-10T20:01:42.312Z,10.43
2017-10-10T20:04:10.179Z,9.65
2017-10-10T20:06:38.047Z,10.05
2017-10-10T20:09:05.914Z,10.05
2017-10-10T20:11:33.782Z,10.52
2017-10-10T20:14:01.648Z,10.35
2017-10-10T20:16:29.516Z,10.45
2017-10-10T20:18:57.383Z,11.05
2017-10-10T20:21:25.250Z,11.45
2017-10-10T20:23:53.117Z,11.15
2017-10-10T20:26:20.988Z,11.98
2017-10-10T20:28:48.863Z,11.57
2017-10-10T20:31:16.726Z,11.68
2017-10-10T20:33:44.587Z,11.32
2017-10-10T20:36:12.455Z,12.15
2017-10-10T20:38:40.321Z,11.68
2017-10-10T20:41:08.188Z,11.57
2017-10-10T20:43:36.056Z,11.00
2017-10-10T20:46:03.923Z,10.65
2017-10-10T20:48:31.791Z,12.32
2017-10-10T20:50:59.658Z,11.75
2017-10-10T20:53:27.525Z,11.15
2017-10-10T20:55:55.398Z,12.50
2017-10-10T20:58:23.264Z,11.10
2017-10-10T21:00:51.129Z,11.90
2017-10-10T21:03:19.000Z,12.02
2017-10-10T21:05:46.868Z,12.57
2017-10-10T21:08:14.734Z,11.48
2017-10-10T21:10:42.601Z,12.60
2017-10-10T21:13:10.468Z,12.68
2017-10-10T21:15:38.332Z,11.48
2017-10-10T21:18:06.198Z,10.57
2017-10-10T21:20:34.066Z,12.13
2017-10-10T21:23:01.933Z,10.98
2017-10-10T21:25:29.800Z,11.77
2017-10-10T21:27:57.668Z,11.98
2017-10-10T21:30:25.536Z,10.95
2017-10-10T21:32:53.402Z,11.75
2017-10-10T21:35:21.372Z,12.60
2017-10-10T21:37:49.239Z,11.48
2017-10-10T21:40:17.107Z,13.40
2017-10-10T21:42:44.975Z,12.75
2017-10-10T21:45:12.842Z,12.65
2017-10-10T21:47:40.812Z,12.10
2017-10-10T21:50:08.800Z,11.98
2017-10-10T21:52:36.648Z,11.65
2017-10-10T21:55:04.516Z,12.55
2017-10-10T21:57:32.314Z,13.50
2017-10-10T22:00:00.967Z,13.40
2017-10-10T22:02:28.834Z,12.02
2017-10-10T22:04:56.727Z,11.70
2017-10-10T22:07:25.388Z,11.48
2017-10-10T22:09:53.255Z,11.80
2017-10-10T22:12:21.122Z,12.35
2017-10-10T22:14:48.990Z,12.43
2017-10-10T22:17:16.858Z,12.57
2017-10-10T22:19:44.724Z,13.07
2017-10-10T22:22:12.531Z,13.50
2017-10-10T22:24:41.176Z,12.30
2017-10-10T22:27:09.043Z,13.23
2017-10-10T22:29:36.911Z,12.25
2017-10-10T22:32:04.785Z,12.65
2017-10-10T22:34:32.578Z,12.75
2017-10-10T22:37:01.232Z,12.02
2017-10-10T22:39:29.096Z,13.77
2017-10-10T22:41:56.966Z,12.50
2017-10-10T22:44:24.774Z,11.70
2017-10-10T22:46:53.416Z,12.48
2017-10-10T22:49:21.283Z,13.00
2017-10-10T22:51:49.151Z,11.75
2017-10-10T22:54:17.017Z,12.02
2017-10-10T22:56:44.884Z,12.20
2017-10-10T22:59:12.753Z,11.63
2017-10-10T23:01:40.621Z,10.50
2017-10-10T23:04:08.416Z,11.52
2017-10-10T23:06:37.071Z,10.73
2017-10-10T23:09:04.938Z,10.20
2017-10-10T23:11:32.805Z,10.38
2017-10-10T23:14:00.673Z,10.63
2017-10-10T23:16:28.539Z,11.77
2017-10-10T23:18:56.408Z,12.15
2017-10-10T23:21:24.274Z,11.90
2017-10-10T23:23:52.142Z,12.05
2017-10-10T23:26:20.014Z,12.30
2017-10-10T23:28:47.877Z,12.27
2017-10-10T23:31:15.744Z,11.82
2017-10-10T23:33:43.612Z,13.35
2017-10-10T23:36:11.479Z,11.43
2017-10-10T23:38:39.346Z,11.52
2017-10-10T23:41:07.214Z,12.80
2017-10-10T23:43:35.083Z,11.57
2017-10-10T23:46:02.948Z,11.73
2017-10-10T23:48:30.815Z,11.48
2017-10-10T23:50:58.690Z,12.40
2017-10-10T23:53:26.549Z,12.15
2017-10-10T23:55:54.417Z,12.10
2017-10-10T23:58:22.285Z,11.63
